Unity, Wisconsin
Current Conditions -  °F | °C
As of 1:54 PM on Thursday 18 Dec 2014 (Local Time) from KMFI Reporting Station
Overcast Overcast  
Wind Chill: 25°   Ceiling: 1200
Heat Index: 25°   Visibility: 10mi
Dew Point: 19°   Wind: 0mph
Humidity: 78%   Direction: NA
Pressure: 30.22"   Gusts: NA
Location:  44.85°N, 90.31°W
Report Text: KMFI 181954Z AUTO 00000KT 10SM OVC012 M04/M07 A3022 RMK AO2 SLP255 T10391072
Loading
Personal Weather Stations






























Interactive Weather Map New forecast layout! Learn more

10-Day Weather Forecast

Advertisements
Track Severe Weather on mobile